Time;durP1;ratioP1;P1;durP2;ratioP2;P2;SDS_P1;SDS_P2;PMS_P1;PMS_P2;Temp;Humidity;BMP_temperature;BMP_pressure;BME280_temperature;BME280_humidity;BME280_pressure;Samples;Min_cycle;Max_cycle;Signal;HPM_P1;HPM_P2
2021/09/02 00:00:44;;;;;;;9.23;6.57;;;;;;;16.84;66.59;95257.09;5016239;28;20736;-81
2021/09/02 00:03:11;;;;;;;8.63;6.80;;;;;;;16.75;66.56;95256.19;5016386;28;20447;-80
2021/09/02 00:05:40;;;;;;;10.47;7.50;;;;;;;16.68;67.45;95266.59;5015875;28;20453;-81
2021/09/02 00:08:07;;;;;;;7.87;6.90;;;;;;;16.72;67.01;95267.13;5016106;28;20548;-81
2021/09/02 00:10:35;;;;;;;8.40;7.37;;;;;;;16.66;67.23;95271.25;5015683;28;20445;-81
2021/09/02 00:13:02;;;;;;;20.23;7.73;;;;;;;16.61;68.11;95268.22;5016167;28;20451;-81
2021/09/02 00:15:29;;;;;;;7.83;6.53;;;;;;;16.63;67.88;95276.81;5015743;28;20448;-82
2021/09/02 00:17:56;;;;;;;7.10;6.30;;;;;;;16.51;68.51;95266.66;4997299;28;20482;-81
2021/09/02 00:20:23;;;;;;;7.43;6.00;;;;;;;16.39;68.78;95263.44;5015921;28;20447;-82
2021/09/02 00:22:51;;;;;;;7.03;6.03;;;;;;;16.38;68.87;95267.91;4981121;28;20450;-81
2021/09/02 00:25:18;;;;;;;11.43;6.20;;;;;;;16.37;69.09;95260.13;4997535;28;20808;-82
2021/09/02 00:27:46;;;;;;;7.90;6.73;;;;;;;16.40;69.65;95257.16;5015450;28;20843;-81
2021/09/02 00:30:14;;;;;;;6.80;5.90;;;;;;;16.47;69.24;95260.81;5015423;28;20483;-82
2021/09/02 00:32:41;;;;;;;8.30;6.60;;;;;;;16.53;68.77;95262.03;5015597;28;20904;-80
2021/09/02 00:35:09;;;;;;;9.80;6.80;;;;;;;16.53;69.31;95260.22;5015374;28;20942;-80
2021/09/02 00:37:36;;;;;;;8.10;5.80;;;;;;;16.58;68.76;95259.75;4965227;28;20438;-80
2021/09/02 00:40:05;;;;;;;6.30;5.70;;;;;;;16.46;69.06;95256.50;5015499;28;20449;-81
2021/09/02 00:42:32;;;;;;;7.80;5.97;;;;;;;16.48;69.04;95251.06;4997418;28;20821;-80
2021/09/02 00:44:59;;;;;;;8.13;6.10;;;;;;;16.36;69.76;95256.63;5016002;28;20438;-79
2021/09/02 00:47:26;;;;;;;6.50;5.70;;;;;;;16.40;69.61;95267.75;4997388;28;20998;-80
2021/09/02 00:49:54;;;;;;;8.50;5.27;;;;;;;16.44;69.41;95263.78;5014666;28;20482;-80
2021/09/02 00:52:23;;;;;;;7.57;6.00;;;;;;;16.45;69.88;95268.09;5015422;28;20532;-80
2021/09/02 00:54:52;;;;;;;5.70;5.10;;;;;;;16.46;69.48;95253.88;5015172;28;20443;-81
2021/09/02 00:57:23;;;;;;;6.13;5.53;;;;;;;16.46;69.00;95253.88;5015601;28;20478;-81
2021/09/02 00:59:52;;;;;;;6.97;5.53;;;;;;;16.53;68.61;95259.41;5015280;28;20448;-80
2021/09/02 01:02:20;;;;;;;8.60;5.00;;;;;;;16.63;69.22;95265.41;5015417;28;20544;-81
2021/09/02 01:04:47;;;;;;;6.50;5.23;;;;;;;16.70;68.82;95256.69;5014959;28;20460;-80
2021/09/02 01:07:14;;;;;;;8.43;5.33;;;;;;;16.67;68.52;95259.66;4996645;28;20457;-81
2021/09/02 01:09:42;;;;;;;5.77;5.27;;;;;;;16.60;68.49;95255.94;5014726;28;20851;-81
2021/09/02 01:12:31;;;;;;;5.50;5.10;;;;;;;16.46;69.35;95253.88;5015105;28;20798;-80
2021/09/02 01:14:59;;;;;;;6.40;5.70;;;;;;;16.41;70.00;95250.88;5014614;28;20483;-81
2021/09/02 01:17:26;;;;;;;6.70;4.70;;;;;;;16.47;70.27;95252.88;5014742;28;20565;-80
2021/09/02 01:19:57;;;;;;;5.10;4.60;;;;;;;16.44;69.58;95250.53;5014656;28;20489;-80
2021/09/02 01:22:25;;;;;;;6.50;5.60;;;;;;;16.34;70.15;95245.38;4997011;28;20447;-80
2021/09/02 01:24:54;;;;;;;6.83;4.83;;;;;;;16.29;70.71;95246.81;5014924;28;20451;-80
2021/09/02 01:27:21;;;;;;;9.30;5.00;;;;;;;16.23;70.52;95235.06;4996412;28;20453;-81
2021/09/02 01:29:55;;;;;;;5.73;5.20;;;;;;;16.25;70.97;95237.53;5014434;28;20488;-81
2021/09/02 01:32:25;;;;;;;5.63;5.13;;;;;;;16.23;70.77;95240.34;5014375;28;20446;-80
2021/09/02 01:34:54;;;;;;;14.20;5.33;;;;;;;16.19;71.17;95246.09;5014339;28;20449;-81
2021/09/02 01:37:22;;;;;;;5.87;5.30;;;;;;;16.12;71.25;95240.59;5014247;28;20443;-81
2021/09/02 01:39:49;;;;;;;5.87;5.30;;;;;;;16.13;71.21;95238.75;4996007;28;20539;-80
2021/09/02 01:42:17;;;;;;;5.27;4.77;;;;;;;16.03;71.83;95242.34;5014192;28;20520;-80
2021/09/02 01:44:45;;;;;;;5.93;5.43;;;;;;;16.00;72.08;95244.47;5014702;28;20449;-80
2021/09/02 01:47:23;;;;;;;6.20;5.47;;;;;;;16.09;71.76;95246.19;5014322;28;20526;-81
2021/09/02 01:49:50;;;;;;;9.30;5.77;;;;;;;16.10;71.78;95247.84;5014015;28;20490;-81
2021/09/02 01:52:18;;;;;;;5.93;5.33;;;;;;;16.06;71.96;95242.03;5014281;28;20882;-81
2021/09/02 01:54:45;;;;;;;6.73;6.00;;;;;;;16.05;71.65;95245.69;4995765;28;20877;-80
2021/09/02 01:57:13;;;;;;;8.23;6.00;;;;;;;16.06;72.20;95243.84;5014446;28;20800;-81
2021/09/02 01:59:42;;;;;;;6.80;5.57;;;;;;;16.02;72.17;95238.03;5013926;28;20975;-80
2021/09/02 02:02:09;;;;;;;8.60;5.93;;;;;;;16.03;72.40;95237.06;4994838;28;20441;-81
2021/09/02 02:04:36;;;;;;;6.30;5.40;;;;;;;15.99;72.31;95240.19;5014024;28;20451;-80
2021/09/02 02:07:03;;;;;;;6.83;6.23;;;;;;;15.99;72.51;95241.00;4995404;28;20457;-81
2021/09/02 02:09:30;;;;;;;6.63;5.93;;;;;;;16.02;72.73;95245.16;5013711;28;20486;-81
2021/09/02 02:11:57;;;;;;;6.70;6.00;;;;;;;16.00;72.78;95237.38;4995514;28;20480;-81
2021/09/02 02:14:24;;;;;;;7.40;6.63;;;;;;;16.05;72.31;95245.69;5013655;28;20547;-81
2021/09/02 02:16:52;;;;;;;6.63;6.03;;;;;;;16.03;72.55;95242.34;5013577;28;20573;-81
2021/09/02 02:19:19;;;;;;;6.90;6.30;;;;;;;16.06;72.13;95242.03;5013619;28;20435;-81
2021/09/02 02:21:47;;;;;;;7.67;6.97;;;;;;;16.06;72.30;95242.03;4995188;28;20532;-81
2021/09/02 02:24:14;;;;;;;6.50;5.90;;;;;;;16.00;72.61;95233.91;5013977;28;20443;-80
2021/09/02 02:26:41;;;;;;;7.87;6.97;;;;;;;16.01;72.45;95244.31;5013440;28;20437;-81
2021/09/02 02:29:08;;;;;;;10.37;6.03;;;;;;;15.98;73.26;95238.50;5013204;28;20497;-81
2021/09/02 02:31:35;;;;;;;11.27;7.10;;;;;;;15.96;73.06;95243.97;5013343;28;20518;-81
2021/09/02 02:34:03;;;;;;;8.47;7.40;;;;;;;15.97;72.78;95250.91;5013895;28;20448;-80
2021/09/02 02:36:30;;;;;;;9.63;6.30;;;;;;;15.98;73.23;95244.63;5013457;28;20542;-80
2021/09/02 02:38:57;;;;;;;10.73;7.40;;;;;;;16.03;73.32;95250.28;5013243;28;20453;-80
2021/09/02 02:41:25;;;;;;;9.57;6.13;;;;;;;16.09;73.00;95257.63;5013537;28;20460;-81
2021/09/02 02:43:52;;;;;;;10.90;6.37;;;;;;;16.07;73.39;95253.47;5013111;28;20523;-81
2021/09/02 02:46:19;;;;;;;8.20;7.40;;;;;;;16.08;73.13;95249.81;5013646;28;20512;-80
2021/09/02 02:48:46;;;;;;;9.87;7.53;;;;;;;16.05;73.72;95248.31;4978536;28;20447;-80
2021/09/02 02:51:14;;;;;;;13.47;7.60;;;;;;;16.10;73.51;95264.56;5012780;28;21000;-80
2021/09/02 02:53:41;;;;;;;7.30;6.70;;;;;;;16.08;73.32;95255.94;5012952;28;20449;-81
2021/09/02 02:56:11;;;;;;;9.23;7.37;;;;;;;16.14;73.00;95264.25;5013003;28;20881;-81
2021/09/02 02:58:38;;;;;;;8.73;8.00;;;;;;;16.06;73.72;95262.38;5012737;28;20821;-81
2021/09/02 03:01:08;;;;;;;9.77;7.40;;;;;;;16.10;73.81;95256.63;5012922;28;20826;-81
2021/09/02 03:03:35;;;;;;;9.50;8.60;;;;;;;16.15;73.15;95261.44;5012840;28;20458;-81
2021/09/02 03:06:02;;;;;;;11.40;7.60;;;;;;;16.23;73.24;95263.34;5012859;28;20455;-81
2021/09/02 03:08:30;;;;;;;7.83;7.10;;;;;;;16.28;73.23;95264.53;5012565;28;20805;-80
2021/09/02 03:10:57;;;;;;;8.63;6.73;;;;;;;16.33;73.16;95256.13;5013678;28;20477;-81
2021/09/02 03:13:24;;;;;;;8.80;7.40;;;;;;;16.27;73.01;95252.28;5013246;28;20442;-80
2021/09/02 03:15:51;;;;;;;7.80;7.10;;;;;;;16.32;73.33;95250.00;5012579;28;20457;-81
2021/09/02 03:18:18;;;;;;;8.47;7.37;;;;;;;16.33;73.03;95259.59;5012904;28;20565;-81
2021/09/02 03:20:45;;;;;;;11.13;7.00;;;;;;;16.36;72.99;95261.94;5012815;28;20453;-81
2021/09/02 03:23:12;;;;;;;8.63;7.80;;;;;;;16.32;73.21;95257.09;4978237;28;20518;-81
2021/09/02 03:25:40;;;;;;;11.07;8.53;;;;;;;16.28;73.63;95261.06;5012608;28;20454;-80
2021/09/02 03:28:07;;;;;;;8.67;7.70;;;;;;;16.23;73.28;95255.41;5012493;28;20455;-80
2021/09/02 03:30:34;;;;;;;8.73;8.00;;;;;;;16.26;73.89;95271.81;5012332;28;20569;-81
2021/09/02 03:33:01;;;;;;;9.70;8.10;;;;;;;16.27;73.27;95272.63;5012845;28;20459;-81
2021/09/02 03:35:28;;;;;;;7.43;6.73;;;;;;;16.25;73.85;95274.63;5012833;28;20805;-80
2021/09/02 03:37:55;;;;;;;12.10;8.20;;;;;;;16.16;72.84;95259.63;5012550;28;20526;-80
2021/09/02 03:40:23;;;;;;;8.70;7.80;;;;;;;16.20;73.63;95263.66;5012336;28;20451;-81
2021/09/02 03:42:52;;;;;;;8.50;7.60;;;;;;;16.14;73.67;95267.72;4978512;28;20525;-81
2021/09/02 03:45:18;;;;;;;9.30;8.37;;;;;;;16.13;73.69;95263.44;5012587;28;20818;-80
2021/09/02 03:47:49;;;;;;;11.53;7.60;;;;;;;16.15;73.68;95260.63;5012658;28;20455;-81
2021/09/02 03:50:17;;;;;;;9.47;8.60;;;;;;;16.21;73.35;95267.97;5012638;28;20497;-81
2021/09/02 03:52:44;;;;;;;11.37;8.60;;;;;;;16.18;73.32;95262.97;5012564;28;20482;-81
2021/09/02 03:55:12;;;;;;;14.53;9.27;;;;;;;16.18;74.04;95265.59;5012431;28;20451;-81
2021/09/02 03:57:42;;;;;;;9.73;8.73;;;;;;;16.16;74.10;95262.28;5012418;28;20446;-83
2021/09/02 04:00:13;;;;;;;10.50;8.80;;;;;;;16.08;74.34;95266.53;5012382;28;21019;-82
2021/09/02 04:02:41;;;;;;;9.63;8.63;;;;;;;16.05;74.00;95272.16;5012419;28;20810;-82
2021/09/02 04:05:09;;;;;;;11.20;10.00;;;;;;;16.08;74.57;95277.13;5012311;28;20444;-84
2021/09/02 04:07:36;;;;;;;12.23;10.00;;;;;;;16.14;74.34;95280.16;5012316;28;20446;-82
2021/09/02 04:10:05;;;;;;;15.93;8.93;;;;;;;16.14;74.56;95280.97;4994328;28;20491;-82
2021/09/02 04:12:32;;;;;;;9.67;8.67;;;;;;;16.30;73.70;95285.56;5012956;28;20451;-80
2021/09/02 04:14:59;;;;;;;11.90;8.60;;;;;;;16.62;72.69;95284.94;5012331;28;20486;-80
2021/09/02 04:17:28;;;;;;;8.50;7.70;;;;;;;17.07;71.25;95276.75;5013143;28;20482;-80
2021/09/02 04:19:55;;;;;;;9.37;8.07;;;;;;;17.46;69.84;95281.50;5012760;28;20446;-80
2021/09/02 04:22:22;;;;;;;9.37;8.03;;;;;;;17.77;67.96;95279.91;5012840;28;20560;-79
2021/09/02 04:24:49;;;;;;;10.20;8.70;;;;;;;17.94;67.24;95283.41;5014387;28;20868;-80
2021/09/02 04:27:17;;;;;;;8.87;8.03;;;;;;;18.17;66.33;95283.56;5016998;28;20442;-80
2021/09/02 04:29:44;;;;;;;10.10;7.03;;;;;;;18.58;65.22;95298.47;5016428;28;20438;-79
2021/09/02 04:32:11;;;;;;;8.30;7.33;;;;;;;18.80;63.80;95285.50;4997974;28;20445;-79
2021/09/02 04:34:40;;;;;;;10.30;7.73;;;;;;;18.88;63.31;95293.44;5015810;28;20450;-80
2021/09/02 04:37:07;;;;;;;9.83;7.63;;;;;;;18.88;63.84;95291.63;5015540;28;20445;-81
2021/09/02 04:39:35;;;;;;;8.90;7.90;;;;;;;19.03;63.68;95302.34;5015816;28;20532;-81
2021/09/02 04:42:02;;;;;;;9.23;8.17;;;;;;;19.26;62.86;95301.59;5015541;28;20446;-80
2021/09/02 04:44:29;;;;;;;8.93;8.10;;;;;;;19.37;62.53;95303.88;5015594;28;20450;-81
2021/09/02 04:46:56;;;;;;;9.00;7.97;;;;;;;19.07;62.69;95308.16;5015606;28;20443;-81
2021/09/02 04:49:22;;;;;;;8.77;7.97;;;;;;;18.55;64.11;95303.31;5015638;28;20531;-80
2021/09/02 04:51:51;;;;;;;8.63;7.83;;;;;;;18.19;65.28;95300.16;5015432;28;20490;-80
2021/09/02 04:54:18;;;;;;;9.43;8.30;;;;;;;18.01;66.11;95315.44;5016097;28;20452;-80
2021/09/02 04:56:45;;;;;;;8.70;7.90;;;;;;;17.79;67.15;95316.91;5015623;28;20452;-81
2021/09/02 04:59:12;;;;;;;9.30;8.27;;;;;;;17.73;67.94;95314.91;5015738;28;20523;-81
2021/09/02 05:01:39;;;;;;;9.87;8.43;;;;;;;17.64;68.38;95316.69;5015595;28;20881;-80
2021/09/02 05:04:05;;;;;;;9.20;8.27;;;;;;;17.63;68.42;95313.19;5015268;28;20439;-81
2021/09/02 05:06:34;;;;;;;8.37;7.40;;;;;;;17.55;68.59;95325.63;5014727;28;20450;-81
2021/09/02 05:09:03;;;;;;;8.43;7.60;;;;;;;17.37;69.58;95323.09;5014772;28;20446;-81
2021/09/02 05:11:30;;;;;;;7.70;7.00;;;;;;;17.29;69.75;95328.34;5014798;28;20483;-81
2021/09/02 05:13:57;;;;;;;12.43;7.80;;;;;;;17.21;70.06;95329.16;5015395;28;20471;-81
2021/09/02 05:16:23;;;;;;;8.07;7.37;;;;;;;17.10;70.29;95334.75;5014765;28;20453;-81
2021/09/02 05:18:50;;;;;;;8.10;7.30;;;;;;;17.11;70.40;95333.75;5014622;28;20456;-81
2021/09/02 05:21:17;;;;;;;9.17;8.27;;;;;;;17.11;70.43;95327.63;5014533;28;20990;-81
2021/09/02 05:23:44;;;;;;;7.47;6.77;;;;;;;17.03;71.06;95331.06;4996164;28;20533;-80
2021/09/02 05:26:13;;;;;;;12.17;7.70;;;;;;;16.90;71.17;95331.50;4996317;28;20824;-81
2021/09/02 05:28:40;;;;;;;11.43;8.40;;;;;;;16.88;71.41;95330.84;5014217;28;21053;-81
2021/09/02 05:31:07;;;;;;;8.03;6.37;;;;;;;16.91;70.82;95337.63;5014267;28;20862;-81
2021/09/02 05:33:34;;;;;;;7.33;6.63;;;;;;;17.03;71.79;95331.06;5014316;28;20494;-81
2021/09/02 05:36:01;;;;;;;8.70;7.80;;;;;;;17.12;70.01;95331.94;5014045;28;20443;-81
2021/09/02 05:38:28;;;;;;;8.80;7.17;;;;;;;17.24;69.88;95338.63;5014453;28;20458;-81
2021/09/02 05:40:55;;;;;;;9.07;7.07;;;;;;;17.25;69.33;95325.19;5014209;28;20449;-80
2021/09/02 05:43:26;;;;;;;8.83;7.90;;;;;;;17.25;69.36;95333.16;5014306;28;20487;-80
2021/09/02 05:45:53;;;;;;;6.93;6.30;;;;;;;17.24;69.36;95344.75;4995806;28;20448;-80
2021/09/02 05:48:20;;;;;;;8.80;7.77;;;;;;;17.31;69.53;95335.16;5014442;28;20942;-80
2021/09/02 05:50:47;;;;;;;9.27;8.20;;;;;;;17.35;69.24;95338.34;5014243;28;20493;-81
2021/09/02 05:53:14;;;;;;;11.40;7.83;;;;;;;17.38;68.72;95330.06;5014354;28;20478;-80
2021/09/02 05:55:41;;;;;;;7.10;6.50;;;;;;;17.39;68.33;95330.88;4995895;28;20924;-80
2021/09/02 05:58:09;;;;;;;7.40;6.73;;;;;;;17.34;68.84;95332.16;5014133;28;20537;-80
2021/09/02 06:00:37;;;;;;;7.50;6.80;;;;;;;17.39;69.58;95330.88;5013996;28;20459;-80
2021/09/02 06:03:04;;;;;;;7.67;6.97;;;;;;;17.45;68.88;95335.53;5013742;28;20445;-80
2021/09/02 06:05:31;;;;;;;8.70;7.80;;;;;;;17.61;68.75;95330.25;5013848;28;20444;-81
2021/09/02 06:07:58;;;;;;;7.23;6.53;;;;;;;17.95;66.63;95320.44;4979256;28;20539;-80
2021/09/02 06:10:25;;;;;;;9.73;6.87;;;;;;;18.41;65.31;95320.75;5013784;28;20488;-81
2021/09/02 06:12:53;;;;;;;6.90;6.20;;;;;;;18.92;63.96;95317.88;5013438;28;20440;-80
2021/09/02 06:15:20;;;;;;;6.50;6.00;;;;;;;19.17;61.63;95309.63;4995283;28;20945;-82
2021/09/02 06:17:51;;;;;;;6.30;5.70;;;;;;;19.55;61.11;95306.31;5013586;28;20592;-80
2021/09/02 06:20:18;;;;;;;6.67;5.60;;;;;;;19.91;60.45;95317.25;5013853;28;20529;-80
2021/09/02 06:22:45;;;;;;;6.67;6.07;;;;;;;20.16;58.11;95312.56;4995099;28;20443;-80
2021/09/02 06:25:12;;;;;;;8.10;5.80;;;;;;;20.37;57.78;95310.91;5013344;28;20447;-81
2021/09/02 06:27:40;;;;;;;5.77;5.27;;;;;;;20.34;56.78;95310.44;5013756;28;20910;-80
2021/09/02 06:30:07;;;;;;;7.43;5.37;;;;;;;20.56;57.16;95317.59;4995026;28;20448;-81
2021/09/02 06:32:34;;;;;;;8.13;5.00;;;;;;;20.56;56.69;95295.44;5013616;28;20439;-80
2021/09/02 06:35:03;;;;;;;6.93;5.90;;;;;;;20.81;56.39;95310.16;5013229;28;20446;-80
2021/09/02 06:37:30;;;;;;;6.47;5.03;;;;;;;20.81;55.33;95312.00;5012987;28;20535;-80
2021/09/02 06:39:57;;;;;;;5.63;5.13;;;;;;;20.82;55.58;95311.84;4994973;28;20526;-80
2021/09/02 06:42:25;;;;;;;6.00;4.93;;;;;;;20.95;55.24;95306.69;5013415;28;20974;-82
2021/09/02 06:44:51;;;;;;;5.63;5.13;;;;;;;21.14;55.60;95317.84;5013384;28;20540;-80
2021/09/02 06:47:18;;;;;;;10.33;6.20;;;;;;;21.41;55.14;95327.91;5012547;28;20946;-81
2021/09/02 06:49:45;;;;;;;4.40;4.00;;;;;;;21.39;53.62;95324.56;4994973;28;20547;-81
2021/09/02 06:52:14;;;;;;;7.83;4.73;;;;;;;21.55;53.66;95323.53;5013184;28;20490;-81
2021/09/02 06:54:41;;;;;;;5.97;5.20;;;;;;;21.23;53.98;95322.94;5012869;28;20448;-81
2021/09/02 06:57:08;;;;;;;6.20;5.10;;;;;;;21.56;53.67;95315.34;5013181;28;20851;-80
2021/09/02 06:59:34;;;;;;;8.03;5.20;;;;;;;21.53;53.08;95321.06;5013288;28;20856;-80
2021/09/02 07:02:01;;;;;;;6.60;5.10;;;;;;;21.37;53.37;95329.25;5013041;28;20808;-81
2021/09/02 07:04:28;;;;;;;6.33;4.77;;;;;;;21.19;54.14;95323.44;4994664;28;20574;-81
2021/09/02 07:06:55;;;;;;;7.83;4.17;;;;;;;21.17;53.92;95315.63;4994794;28;20459;-80
2021/09/02 07:09:24;;;;;;;5.70;5.20;;;;;;;21.13;54.18;95314.34;5012686;28;20524;-80
2021/09/02 07:11:51;;;;;;;6.13;4.87;;;;;;;21.20;54.24;95323.25;5012932;28;21009;-80
2021/09/02 07:14:18;;;;;;;12.20;5.00;;;;;;;21.26;54.06;95321.72;5012964;28;20531;-80
2021/09/02 07:16:44;;;;;;;5.20;4.70;;;;;;;21.44;54.64;95332.88;5012844;28;20451;-80
2021/09/02 07:19:11;;;;;;;6.00;4.97;;;;;;;21.60;54.23;95319.28;5013081;28;20477;-80
2021/09/02 07:21:38;;;;;;;6.13;4.63;;;;;;;21.77;52.86;95321.75;5012424;28;20459;-80
2021/09/02 07:24:06;;;;;;;5.50;4.87;;;;;;;21.94;53.17;95325.81;5012678;28;20481;-80
2021/09/02 07:26:34;;;;;;;7.47;4.60;;;;;;;22.09;52.54;95332.00;5012723;28;20551;-81
2021/09/02 07:29:01;;;;;;;8.77;5.33;;;;;;;22.11;51.89;95335.28;5012486;28;20821;-81
2021/09/02 07:31:28;;;;;;;4.90;4.50;;;;;;;22.36;51.78;95334.91;5012794;28;20576;-80
2021/09/02 07:33:55;;;;;;;5.30;4.80;;;;;;;22.37;51.50;95326.72;5012781;28;20568;-81
2021/09/02 07:36:22;;;;;;;4.73;4.33;;;;;;;22.20;51.62;95339.50;4978089;28;20521;-80
2021/09/02 07:38:49;;;;;;;6.77;5.20;;;;;;;22.28;51.41;95330.53;5012936;28;20436;-81
2021/09/02 07:41:16;;;;;;;6.97;4.83;;;;;;;22.27;52.17;95330.72;5012464;28;20969;-80
2021/09/02 07:43:44;;;;;;;8.93;5.20;;;;;;;22.38;52.20;95330.22;5012784;28;20496;-80
2021/09/02 07:46:11;;;;;;;4.73;4.40;;;;;;;22.46;50.59;95332.75;5012600;28;20504;-81
2021/09/02 07:48:40;;;;;;;5.20;4.70;;;;;;;22.43;51.93;95327.78;5013081;28;20456;-80
2021/09/02 07:51:07;;;;;;;4.70;4.30;;;;;;;22.50;50.76;95334.84;4994578;28;20854;-80
2021/09/02 07:53:34;;;;;;;7.20;4.30;;;;;;;22.48;51.11;95336.88;5012926;28;20811;-81
2021/09/02 07:56:01;;;;;;;5.83;4.40;;;;;;;22.46;50.89;95336.25;5013010;28;20524;-80
2021/09/02 07:58:28;;;;;;;5.00;4.37;;;;;;;22.29;50.74;95315.31;5012613;28;20540;-79
2021/09/02 08:00:59;;;;;;;7.93;4.40;;;;;;;22.38;51.57;95335.56;5015599;28;20461;-80
2021/09/02 08:03:25;;;;;;;4.90;4.33;;;;;;;21.98;51.27;95335.16;4982139;28;20515;-80
2021/09/02 08:05:53;;;;;;;6.47;4.70;;;;;;;21.69;52.78;95333.38;5016349;28;20527;-80
2021/09/02 08:08:21;;;;;;;5.03;4.53;;;;;;;21.59;52.93;95327.47;5016202;28;20509;-80
2021/09/02 08:10:49;;;;;;;4.93;4.43;;;;;;;21.51;53.54;95323.09;5015773;28;20724;-80
2021/09/02 08:13:16;;;;;;;4.03;3.70;;;;;;;21.34;53.35;95325.13;5016001;28;20452;-80
2021/09/02 08:15:43;;;;;;;4.13;3.73;;;;;;;21.18;53.02;95317.28;5016036;28;20472;-80
2021/09/02 08:18:12;;;;;;;5.17;4.50;;;;;;;21.17;54.06;95325.47;5016107;28;20475;-80
2021/09/02 08:20:39;;;;;;;5.67;4.43;;;;;;;21.58;54.74;95323.16;5016127;28;20538;-81
2021/09/02 08:23:07;;;;;;;5.43;4.03;;;;;;;21.92;52.77;95309.16;5015717;28;20459;-80
2021/09/02 08:25:34;;;;;;;4.50;4.10;;;;;;;22.15;50.94;95319.69;5015721;28;20456;-80
2021/09/02 08:28:01;;;;;;;4.33;3.93;;;;;;;22.46;50.92;95322.03;5015588;28;20446;-80
2021/09/02 08:30:29;;;;;;;5.37;4.57;;;;;;;22.49;50.58;95329.69;5015588;28;20548;-80
2021/09/02 08:32:57;;;;;;;5.33;4.63;;;;;;;22.74;51.44;95333.59;5015435;28;20580;-81
2021/09/02 08:35:27;;;;;;;4.60;4.30;;;;;;;23.16;50.37;95329.19;5015639;28;20810;-81
2021/09/02 08:37:56;;;;;;;6.13;4.67;;;;;;;23.58;49.69;95322.84;5015685;28;20537;-81
2021/09/02 08:40:25;;;;;;;5.83;4.50;;;;;;;23.57;47.70;95323.03;5015272;28;20537;-81
2021/09/02 08:42:54;;;;;;;5.57;4.27;;;;;;;23.64;47.39;95313.16;5015279;28;20541;-81
2021/09/02 08:45:21;;;;;;;5.50;4.03;;;;;;;23.30;47.36;95314.84;4996878;28;21112;-80
2021/09/02 08:47:50;;;;;;;4.40;4.10;;;;;;;23.41;48.25;95318.81;5015331;28;20455;-80
2021/09/02 08:50:19;;;;;;;5.17;4.77;;;;;;;23.30;48.79;95314.84;5015451;28;20524;-81
2021/09/02 08:52:48;;;;;;;10.10;4.77;;;;;;;23.43;49.53;95311.41;5015114;28;20534;-81
2021/09/02 08:55:15;;;;;;;6.30;4.33;;;;;;;23.78;47.76;95302.31;5015007;28;20450;-80
2021/09/02 08:57:44;;;;;;;5.13;4.63;;;;;;;23.86;47.94;95303.16;5014948;28;20805;-80
2021/09/02 09:00:11;;;;;;;4.90;3.77;;;;;;;23.44;47.85;95300.50;5015081;28;20998;-80
2021/09/02 09:02:43;;;;;;;4.57;4.10;;;;;;;23.28;47.96;95300.81;5015022;28;20554;-80
2021/09/02 09:05:12;;;;;;;4.70;4.33;;;;;;;23.13;48.19;95300.09;5015014;28;20452;-80
2021/09/02 09:07:40;;;;;;;5.60;4.30;;;;;;;22.95;48.45;95297.97;5015285;28;20519;-80
2021/09/02 09:10:11;;;;;;;6.40;4.30;;;;;;;22.83;49.96;95307.53;5014925;28;20767;-80
2021/09/02 09:12:39;;;;;;;4.37;3.60;;;;;;;23.05;49.51;95303.78;4980148;28;20586;-80
2021/09/02 09:15:10;;;;;;;5.03;4.57;;;;;;;23.10;49.55;95297.84;5015145;28;20537;-81
2021/09/02 09:17:37;;;;;;;4.57;4.17;;;;;;;23.22;49.60;95296.25;5014707;28;21002;-80
2021/09/02 09:20:07;;;;;;;3.93;3.57;;;;;;;23.14;49.29;95299.13;5029316;28;20960;-81
2021/09/02 09:22:34;;;;;;;5.80;3.97;;;;;;;23.03;48.26;95296.97;5014330;28;20452;-80
2021/09/02 09:25:03;;;;;;;4.17;3.60;;;;;;;22.80;48.92;95286.50;5014794;28;20808;-79
2021/09/02 09:27:37;;;;;;;5.87;4.20;;;;;;;22.65;49.88;95291.13;5014504;28;20446;-80
2021/09/02 09:30:07;;;;;;;7.60;4.57;;;;;;;22.50;49.85;95296.56;5014448;28;20527;-81
2021/09/02 09:32:38;;;;;;;4.80;4.23;;;;;;;22.50;50.96;95296.56;5014337;28;20573;-80
2021/09/02 09:35:07;;;;;;;7.10;3.60;;;;;;;22.80;50.35;95302.53;5014460;28;20452;-81
2021/09/02 09:37:34;;;;;;;4.57;4.17;;;;;;;22.94;49.57;95293.63;4996067;28;20531;-81
2021/09/02 09:40:19;;;;;;;4.03;3.73;;;;;;;23.08;50.30;95299.88;5014625;28;20524;-80
2021/09/02 09:43:05;;;;;;;3.73;3.37;;;;;;;23.14;47.57;95302.63;5014550;28;20515;-81
2021/09/02 09:45:37;;;;;;;3.97;3.57;;;;;;;22.88;47.76;95288.25;5014337;28;20449;-81
2021/09/02 09:48:05;;;;;;;3.17;2.93;;;;;;;22.75;48.20;95286.25;5014108;28;20527;-81
2021/09/02 09:50:32;;;;;;;5.70;3.87;;;;;;;22.76;49.79;95286.06;4995702;28;20435;-82
2021/09/02 09:52:59;;;;;;;5.73;3.50;;;;;;;22.62;49.39;95286.19;5013927;28;20489;-81
2021/09/02 09:55:26;;;;;;;4.40;4.00;;;;;;;22.61;50.56;95293.38;5014013;28;20456;-82
2021/09/02 09:57:53;;;;;;;5.50;4.23;;;;;;;22.74;50.82;95288.09;5013977;28;20533;-82
2021/09/02 10:00:22;;;;;;;5.53;4.70;;;;;;;23.01;50.98;95299.84;5014183;28;20463;-82
2021/09/02 10:02:50;;;;;;;4.33;3.53;;;;;;;23.13;48.76;95297.44;5014125;28;20486;-82
2021/09/02 10:05:19;;;;;;;4.87;3.90;;;;;;;23.24;49.36;95296.91;5014186;28;20444;-82
2021/09/02 10:07:47;;;;;;;5.47;3.80;;;;;;;23.43;48.42;95303.38;5013683;28;20437;-82
2021/09/02 10:10:16;;;;;;;5.40;3.60;;;;;;;23.58;48.60;95290.69;5013754;28;20536;-82
2021/09/02 10:12:45;;;;;;;3.30;3.10;;;;;;;23.70;48.72;95289.06;5013829;28;20494;-82
2021/09/02 10:15:14;;;;;;;4.00;3.70;;;;;;;23.84;48.11;95289.94;5013833;28;20484;-82
2021/09/02 10:17:44;;;;;;;7.13;3.80;;;;;;;23.94;47.46;95285.00;5013851;28;20975;-81
2021/09/02 10:20:16;;;;;;;4.10;3.70;;;;;;;23.78;46.53;95293.44;5013452;28;21002;-81
2021/09/02 10:22:44;;;;;;;6.20;4.10;;;;;;;23.49;47.10;95291.88;4994926;28;20453;-81
2021/09/02 10:25:39;;;;;;;4.63;4.27;;;;;;;23.13;47.84;95295.63;5013249;28;20458;-80
2021/09/02 10:28:09;;;;;;;5.10;4.60;;;;;;;22.77;48.92;95298.41;5013683;28;20445;-81
2021/09/02 10:30:42;;;;;;;4.20;3.90;;;;;;;22.40;49.91;95296.06;4995060;28;20453;-81
2021/09/02 10:33:36;;;;;;;11.63;4.20;;;;;;;22.29;50.76;95308.13;5013077;28;20634;-82
2021/09/02 10:36:31;;;;;;;3.80;3.50;;;;;;;22.05;50.36;95306.66;5013348;28;20464;-81
2021/09/02 10:38:58;;;;;;;5.30;4.10;;;;;;;22.04;50.68;95306.84;5013349;28;20449;-81
2021/09/02 10:41:50;;;;;;;4.13;3.80;;;;;;;22.02;50.67;95304.34;5013220;28;20520;-81
2021/09/02 10:44:22;;;;;;;5.07;4.57;;;;;;;22.13;50.67;95300.34;4952666;29;20453;-80
2021/09/02 10:46:51;;;;;;;11.13;4.30;;;;;;;22.16;50.44;95290.09;4952701;28;20449;-81
2021/09/02 10:49:22;;;;;;;4.20;3.53;;;;;;;22.16;50.67;95295.44;4952637;28;20973;-81
2021/09/02 10:51:53;;;;;;;4.20;3.90;;;;;;;22.27;51.14;95295.97;4952489;29;21035;-81
2021/09/02 10:54:25;;;;;;;3.90;3.40;;;;;;;22.28;50.45;95297.63;4952853;28;20446;-81
2021/09/02 10:57:01;;;;;;;4.93;4.20;;;;;;;22.34;50.23;95294.19;4952677;29;20454;-81
2021/09/02 10:59:44;;;;;;;6.20;5.30;;;;;;;22.46;49.49;95290.78;4952672;29;20539;-81
2021/09/02 11:02:12;;;;;;;5.73;5.00;;;;;;;22.66;50.02;95301.63;4950636;29;20491;-81
2021/09/02 11:04:40;;;;;;;4.23;3.53;;;;;;;22.73;49.76;95296.34;4952421;29;20456;-82
2021/09/02 11:07:07;;;;;;;3.50;3.20;;;;;;;22.74;48.30;95298.81;4952608;28;20982;-81
2021/09/02 11:09:36;;;;;;;4.23;3.90;;;;;;;22.83;48.56;95299.50;4952451;28;20447;-81
2021/09/02 11:12:05;;;;;;;3.90;3.53;;;;;;;22.88;48.29;95290.91;4952453;28;20493;-81
2021/09/02 11:14:38;;;;;;;6.33;2.77;;;;;;;22.80;47.75;95289.16;4952513;29;20804;-81
2021/09/02 11:17:09;;;;;;;4.10;3.80;;;;;;;22.92;46.78;95293.00;4952043;29;20862;-81
2021/09/02 11:19:38;;;;;;;3.43;3.13;;;;;;;23.04;47.50;95290.59;4952385;29;20456;-81
2021/09/02 11:22:09;;;;;;;9.50;3.20;;;;;;;23.11;47.15;95291.44;5013056;28;20458;-81
2021/09/02 11:24:41;;;;;;;3.43;3.10;;;;;;;23.17;46.52;95288.00;5012908;28;20457;-81
2021/09/02 11:27:09;;;;;;;4.63;3.40;;;;;;;23.23;46.71;95292.56;5012627;28;21036;-81
2021/09/02 11:29:37;;;;;;;4.67;3.50;;;;;;;23.18;45.52;95292.34;5012777;28;20544;-81
2021/09/02 11:32:05;;;;;;;3.20;2.90;;;;;;;23.27;46.28;95282.28;5012632;28;20493;-81
2021/09/02 11:34:34;;;;;;;3.63;3.33;;;;;;;23.27;45.48;95298.34;5015358;28;20444;-81
2021/09/02 11:37:01;;;;;;;3.67;2.80;;;;;;;23.14;45.51;95301.78;5016572;28;20935;-82